sensor_id;sensor_type;location;lat;lon;timestamp;P1;durP1;ratioP1;P2;durP2;ratioP2
80146;SDS011;69472;55.812;37.638;2023-05-07T00:02:10;6.72;;;2.83;;
80146;SDS011;69472;55.812;37.638;2023-05-07T00:07:10;8.75;;;2.55;;
80146;SDS011;69472;55.812;37.638;2023-05-07T00:12:11;6.38;;;2.65;;
80146;SDS011;69472;55.812;37.638;2023-05-07T00:17:12;5.57;;;2.90;;
80146;SDS011;69472;55.812;37.638;2023-05-07T00:22:13;6.55;;;2.63;;
80146;SDS011;69472;55.812;37.638;2023-05-07T00:27:13;4.45;;;2.22;;
80146;SDS011;69472;55.812;37.638;2023-05-07T00:32:14;6.15;;;2.65;;
80146;SDS011;69472;55.812;37.638;2023-05-07T00:37:15;6.68;;;2.78;;
80146;SDS011;69472;55.812;37.638;2023-05-07T00:42:16;6.45;;;2.60;;
80146;SDS011;69472;55.812;37.638;2023-05-07T00:47:17;6.55;;;2.38;;
80146;SDS011;69472;55.812;37.638;2023-05-07T00:52:17;5.72;;;2.20;;
80146;SDS011;69472;55.812;37.638;2023-05-07T00:57:20;6.22;;;2.08;;
80146;SDS011;69472;55.812;37.638;2023-05-07T01:02:22;5.22;;;2.00;;
80146;SDS011;69472;55.812;37.638;2023-05-07T01:07:23;3.97;;;1.92;;
80146;SDS011;69472;55.812;37.638;2023-05-07T01:12:24;3.17;;;1.75;;
80146;SDS011;69472;55.812;37.638;2023-05-07T01:17:25;4.03;;;1.80;;
80146;SDS011;69472;55.812;37.638;2023-05-07T01:22:31;6.72;;;1.45;;
80146;SDS011;69472;55.812;37.638;2023-05-07T01:27:34;3.45;;;1.60;;
80146;SDS011;69472;55.812;37.638;2023-05-07T01:32:43;3.88;;;1.65;;
80146;SDS011;69472;55.812;37.638;2023-05-07T01:37:57;4.03;;;1.80;;
80146;SDS011;69472;55.812;37.638;2023-05-07T01:42:57;3.15;;;1.50;;
80146;SDS011;69472;55.812;37.638;2023-05-07T01:47:58;4.35;;;1.85;;
80146;SDS011;69472;55.812;37.638;2023-05-07T01:53:00;5.28;;;1.92;;
80146;SDS011;69472;55.812;37.638;2023-05-07T01:58:02;7.47;;;1.83;;
80146;SDS011;69472;55.812;37.638;2023-05-07T02:03:03;3.35;;;1.63;;
80146;SDS011;69472;55.812;37.638;2023-05-07T02:08:04;4.32;;;1.88;;
80146;SDS011;69472;55.812;37.638;2023-05-07T02:13:05;3.65;;;1.58;;
80146;SDS011;69472;55.812;37.638;2023-05-07T02:18:07;4.30;;;2.05;;
80146;SDS011;69472;55.812;37.638;2023-05-07T02:23:09;5.47;;;2.17;;
80146;SDS011;69472;55.812;37.638;2023-05-07T02:28:10;4.05;;;2.30;;
80146;SDS011;69472;55.812;37.638;2023-05-07T02:33:10;5.60;;;1.90;;
80146;SDS011;69472;55.812;37.638;2023-05-07T02:38:12;8.70;;;2.20;;
80146;SDS011;69472;55.812;37.638;2023-05-07T02:43:13;5.68;;;2.83;;
80146;SDS011;69472;55.812;37.638;2023-05-07T02:48:14;4.32;;;2.33;;
80146;SDS011;69472;55.812;37.638;2023-05-07T02:53:14;5.13;;;2.40;;
80146;SDS011;69472;55.812;37.638;2023-05-07T02:58:15;5.05;;;2.72;;
80146;SDS011;69472;55.812;37.638;2023-05-07T03:03:16;4.88;;;2.30;;
80146;SDS011;69472;55.812;37.638;2023-05-07T03:08:17;5.75;;;2.58;;
80146;SDS011;69472;55.812;37.638;2023-05-07T03:13:18;6.53;;;2.83;;
80146;SDS011;69472;55.812;37.638;2023-05-07T03:18:19;4.80;;;2.33;;
80146;SDS011;69472;55.812;37.638;2023-05-07T03:23:19;4.47;;;2.00;;
80146;SDS011;69472;55.812;37.638;2023-05-07T03:28:20;5.95;;;2.50;;
80146;SDS011;69472;55.812;37.638;2023-05-07T03:33:21;3.88;;;2.10;;
80146;SDS011;69472;55.812;37.638;2023-05-07T03:38:22;3.75;;;1.80;;
80146;SDS011;69472;55.812;37.638;2023-05-07T03:43:22;7.30;;;3.33;;
80146;SDS011;69472;55.812;37.638;2023-05-07T03:48:23;4.80;;;2.30;;
80146;SDS011;69472;55.812;37.638;2023-05-07T03:53:24;4.18;;;1.70;;
80146;SDS011;69472;55.812;37.638;2023-05-07T03:58:25;4.10;;;1.80;;
80146;SDS011;69472;55.812;37.638;2023-05-07T04:03:26;4.38;;;1.85;;
80146;SDS011;69472;55.812;37.638;2023-05-07T04:08:26;2.20;;;1.20;;
80146;SDS011;69472;55.812;37.638;2023-05-07T04:13:29;2.17;;;1.33;;
80146;SDS011;69472;55.812;37.638;2023-05-07T04:18:30;2.33;;;1.30;;
80146;SDS011;69472;55.812;37.638;2023-05-07T04:23:31;3.03;;;1.70;;
80146;SDS011;69472;55.812;37.638;2023-05-07T04:28:32;4.75;;;2.00;;
80146;SDS011;69472;55.812;37.638;2023-05-07T04:33:34;6.57;;;2.17;;
80146;SDS011;69472;55.812;37.638;2023-05-07T04:38:35;3.17;;;1.60;;
80146;SDS011;69472;55.812;37.638;2023-05-07T04:43:36;4.00;;;1.50;;
80146;SDS011;69472;55.812;37.638;2023-05-07T04:48:36;2.63;;;1.60;;
80146;SDS011;69472;55.812;37.638;2023-05-07T04:53:37;2.95;;;1.80;;
80146;SDS011;69472;55.812;37.638;2023-05-07T04:58:38;4.65;;;1.65;;
80146;SDS011;69472;55.812;37.638;2023-05-07T05:03:39;3.05;;;1.50;;
80146;SDS011;69472;55.812;37.638;2023-05-07T05:08:39;5.15;;;1.98;;
80146;SDS011;69472;55.812;37.638;2023-05-07T05:13:40;3.58;;;1.58;;
80146;SDS011;69472;55.812;37.638;2023-05-07T05:18:41;2.28;;;1.35;;
80146;SDS011;69472;55.812;37.638;2023-05-07T05:23:42;5.05;;;1.80;;
80146;SDS011;69472;55.812;37.638;2023-05-07T05:28:42;3.55;;;1.50;;
80146;SDS011;69472;55.812;37.638;2023-05-07T05:33:43;2.15;;;1.38;;
80146;SDS011;69472;55.812;37.638;2023-05-07T05:38:44;2.97;;;1.80;;
80146;SDS011;69472;55.812;37.638;2023-05-07T05:43:45;3.72;;;1.52;;
80146;SDS011;69472;55.812;37.638;2023-05-07T05:48:46;5.43;;;1.42;;
80146;SDS011;69472;55.812;37.638;2023-05-07T05:53:47;2.88;;;0.90;;
80146;SDS011;69472;55.812;37.638;2023-05-07T05:58:47;2.92;;;0.95;;
80146;SDS011;69472;55.812;37.638;2023-05-07T06:03:48;1.08;;;0.57;;
80146;SDS011;69472;55.812;37.638;2023-05-07T06:08:49;1.48;;;0.95;;
80146;SDS011;69472;55.812;37.638;2023-05-07T06:13:50;2.42;;;0.90;;
80146;SDS011;69472;55.812;37.638;2023-05-07T06:18:51;1.58;;;0.70;;
80146;SDS011;69472;55.812;37.638;2023-05-07T06:23:52;2.05;;;0.60;;
80146;SDS011;69472;55.812;37.638;2023-05-07T06:28:55;1.13;;;0.63;;
80146;SDS011;69472;55.812;37.638;2023-05-07T06:33:55;1.88;;;0.80;;
80146;SDS011;69472;55.812;37.638;2023-05-07T06:38:56;5.47;;;1.13;;
80146;SDS011;69472;55.812;37.638;2023-05-07T06:43:57;2.33;;;0.82;;
80146;SDS011;69472;55.812;37.638;2023-05-07T06:48:57;1.20;;;0.80;;
80146;SDS011;69472;55.812;37.638;2023-05-07T06:53:58;2.67;;;0.93;;
80146;SDS011;69472;55.812;37.638;2023-05-07T06:59:00;1.23;;;1.05;;
80146;SDS011;69472;55.812;37.638;2023-05-07T07:04:02;1.45;;;1.00;;
80146;SDS011;69472;55.812;37.638;2023-05-07T07:09:03;2.13;;;1.00;;
80146;SDS011;69472;55.812;37.638;2023-05-07T07:14:03;2.72;;;0.90;;
80146;SDS011;69472;55.812;37.638;2023-05-07T07:19:05;2.80;;;1.27;;
80146;SDS011;69472;55.812;37.638;2023-05-07T07:24:06;1.30;;;1.13;;
80146;SDS011;69472;55.812;37.638;2023-05-07T07:29:06;1.77;;;1.40;;
80146;SDS011;69472;55.812;37.638;2023-05-07T07:34:07;3.05;;;1.70;;
80146;SDS011;69472;55.812;37.638;2023-05-07T07:39:08;3.13;;;1.52;;
80146;SDS011;69472;55.812;37.638;2023-05-07T07:44:08;3.50;;;1.80;;
80146;SDS011;69472;55.812;37.638;2023-05-07T07:49:13;1.38;;;1.10;;
80146;SDS011;69472;55.812;37.638;2023-05-07T07:54:14;1.80;;;1.30;;
80146;SDS011;69472;55.812;37.638;2023-05-07T07:59:15;3.50;;;1.10;;
80146;SDS011;69472;55.812;37.638;2023-05-07T08:04:18;1.45;;;1.00;;
80146;SDS011;69472;55.812;37.638;2023-05-07T08:09:19;2.67;;;0.82;;
80146;SDS011;69472;55.812;37.638;2023-05-07T08:14:20;3.10;;;1.08;;
80146;SDS011;69472;55.812;37.638;2023-05-07T08:19:21;2.10;;;1.98;;
80146;SDS011;69472;55.812;37.638;2023-05-07T08:24:22;1.73;;;0.82;;
80146;SDS011;69472;55.812;37.638;2023-05-07T08:29:23;1.45;;;1.35;;
80146;SDS011;69472;55.812;37.638;2023-05-07T08:34:24;1.80;;;0.95;;
80146;SDS011;69472;55.812;37.638;2023-05-07T08:39:24;3.30;;;1.13;;
80146;SDS011;69472;55.812;37.638;2023-05-07T08:44:26;5.88;;;1.30;;
80146;SDS011;69472;55.812;37.638;2023-05-07T08:49:30;2.63;;;1.35;;
80146;SDS011;69472;55.812;37.638;2023-05-07T08:54:31;1.85;;;0.82;;
80146;SDS011;69472;55.812;37.638;2023-05-07T08:59:32;1.35;;;0.90;;
80146;SDS011;69472;55.812;37.638;2023-05-07T09:04:33;1.92;;;0.98;;
80146;SDS011;69472;55.812;37.638;2023-05-07T09:09:34;1.55;;;1.00;;
80146;SDS011;69472;55.812;37.638;2023-05-07T09:14:34;2.72;;;0.77;;
80146;SDS011;69472;55.812;37.638;2023-05-07T09:19:35;2.05;;;1.25;;
80146;SDS011;69472;55.812;37.638;2023-05-07T09:24:36;1.67;;;1.02;;
80146;SDS011;69472;55.812;37.638;2023-05-07T09:29:38;3.80;;;0.43;;
80146;SDS011;69472;55.812;37.638;2023-05-07T09:34:38;3.35;;;1.15;;
80146;SDS011;69472;55.812;37.638;2023-05-07T09:39:40;2.30;;;0.60;;
80146;SDS011;69472;55.812;37.638;2023-05-07T09:44:41;2.30;;;1.08;;
80146;SDS011;69472;55.812;37.638;2023-05-07T09:49:43;2.13;;;0.98;;
80146;SDS011;69472;55.812;37.638;2023-05-07T09:54:48;2.83;;;1.02;;
80146;SDS011;69472;55.812;37.638;2023-05-07T09:59:50;1.92;;;0.95;;
80146;SDS011;69472;55.812;37.638;2023-05-07T10:04:52;1.95;;;1.00;;
80146;SDS011;69472;55.812;37.638;2023-05-07T10:09:55;1.67;;;0.75;;
80146;SDS011;69472;55.812;37.638;2023-05-07T10:14:56;2.20;;;0.90;;
80146;SDS011;69472;55.812;37.638;2023-05-07T10:19:57;2.35;;;0.70;;
80146;SDS011;69472;55.812;37.638;2023-05-07T10:24:58;2.90;;;0.73;;
80146;SDS011;69472;55.812;37.638;2023-05-07T10:35:26;1.30;;;0.32;;
80146;SDS011;69472;55.812;37.638;2023-05-07T10:40:32;1.20;;;0.55;;
80146;SDS011;69472;55.812;37.638;2023-05-07T10:45:33;4.93;;;0.93;;
80146;SDS011;69472;55.812;37.638;2023-05-07T10:50:34;1.20;;;0.60;;
80146;SDS011;69472;55.812;37.638;2023-05-07T10:55:40;3.10;;;0.90;;
80146;SDS011;69472;55.812;37.638;2023-05-07T11:00:41;2.38;;;1.08;;
80146;SDS011;69472;55.812;37.638;2023-05-07T11:05:42;2.03;;;0.90;;
80146;SDS011;69472;55.812;37.638;2023-05-07T11:15:57;1.85;;;1.00;;
80146;SDS011;69472;55.812;37.638;2023-05-07T11:20:59;3.30;;;1.60;;
80146;SDS011;69472;55.812;37.638;2023-05-07T11:26:00;2.67;;;1.00;;
80146;SDS011;69472;55.812;37.638;2023-05-07T11:31:05;2.10;;;1.02;;
80146;SDS011;69472;55.812;37.638;2023-05-07T11:36:07;0.90;;;0.32;;
80146;SDS011;69472;55.812;37.638;2023-05-07T11:41:09;3.28;;;1.02;;
80146;SDS011;69472;55.812;37.638;2023-05-07T11:46:10;2.70;;;1.00;;
80146;SDS011;69472;55.812;37.638;2023-05-07T11:51:12;5.40;;;0.80;;
80146;SDS011;69472;55.812;37.638;2023-05-07T11:56:14;1.33;;;0.45;;
80146;SDS011;69472;55.812;37.638;2023-05-07T12:01:16;1.88;;;0.90;;
80146;SDS011;69472;55.812;37.638;2023-05-07T12:06:17;2.50;;;1.00;;
80146;SDS011;69472;55.812;37.638;2023-05-07T12:11:22;3.38;;;0.90;;
80146;SDS011;69472;55.812;37.638;2023-05-07T12:16:25;2.25;;;0.70;;
80146;SDS011;69472;55.812;37.638;2023-05-07T12:21:26;2.47;;;0.80;;
80146;SDS011;69472;55.812;37.638;2023-05-07T12:26:27;1.75;;;0.68;;
80146;SDS011;69472;55.812;37.638;2023-05-07T12:31:28;3.03;;;0.57;;
80146;SDS011;69472;55.812;37.638;2023-05-07T12:36:36;2.40;;;0.90;;
80146;SDS011;69472;55.812;37.638;2023-05-07T12:41:56;2.40;;;0.98;;
80146;SDS011;69472;55.812;37.638;2023-05-07T12:47:01;4.45;;;1.20;;
80146;SDS011;69472;55.812;37.638;2023-05-07T12:52:02;3.55;;;1.13;;
80146;SDS011;69472;55.812;37.638;2023-05-07T12:57:07;4.15;;;1.42;;
80146;SDS011;69472;55.812;37.638;2023-05-07T13:02:09;3.47;;;1.17;;
80146;SDS011;69472;55.812;37.638;2023-05-07T13:07:10;2.88;;;1.45;;
80146;SDS011;69472;55.812;37.638;2023-05-07T13:12:10;3.28;;;0.98;;
80146;SDS011;69472;55.812;37.638;2023-05-07T13:17:11;2.85;;;0.75;;
80146;SDS011;69472;55.812;37.638;2023-05-07T13:22:12;3.00;;;1.00;;
80146;SDS011;69472;55.812;37.638;2023-05-07T13:27:13;2.70;;;1.70;;
80146;SDS011;69472;55.812;37.638;2023-05-07T13:32:14;2.10;;;1.13;;
80146;SDS011;69472;55.812;37.638;2023-05-07T13:37:15;3.22;;;1.15;;
80146;SDS011;69472;55.812;37.638;2023-05-07T13:42:15;2.70;;;1.17;;
80146;SDS011;69472;55.812;37.638;2023-05-07T13:47:16;2.28;;;1.10;;
80146;SDS011;69472;55.812;37.638;2023-05-07T13:52:17;1.60;;;0.70;;
80146;SDS011;69472;55.812;37.638;2023-05-07T13:57:18;5.00;;;1.73;;
80146;SDS011;69472;55.812;37.638;2023-05-07T14:02:19;3.03;;;1.50;;
80146;SDS011;69472;55.812;37.638;2023-05-07T14:07:20;4.95;;;1.20;;
80146;SDS011;69472;55.812;37.638;2023-05-07T14:12:20;4.20;;;0.95;;
80146;SDS011;69472;55.812;37.638;2023-05-07T14:17:21;3.65;;;1.27;;
80146;SDS011;69472;55.812;37.638;2023-05-07T14:22:25;3.97;;;1.13;;
80146;SDS011;69472;55.812;37.638;2023-05-07T14:27:26;2.95;;;1.23;;
80146;SDS011;69472;55.812;37.638;2023-05-07T14:32:26;2.80;;;0.93;;
80146;SDS011;69472;55.812;37.638;2023-05-07T14:37:27;2.20;;;1.00;;
80146;SDS011;69472;55.812;37.638;2023-05-07T14:42:28;2.25;;;1.20;;
80146;SDS011;69472;55.812;37.638;2023-05-07T14:47:29;2.15;;;1.05;;
80146;SDS011;69472;55.812;37.638;2023-05-07T14:52:29;3.08;;;1.40;;
80146;SDS011;69472;55.812;37.638;2023-05-07T14:57:30;3.05;;;1.05;;
80146;SDS011;69472;55.812;37.638;2023-05-07T15:02:34;2.60;;;1.23;;
80146;SDS011;69472;55.812;37.638;2023-05-07T15:07:35;3.00;;;1.38;;
80146;SDS011;69472;55.812;37.638;2023-05-07T15:12:36;3.33;;;1.40;;
80146;SDS011;69472;55.812;37.638;2023-05-07T15:17:37;2.30;;;0.70;;
80146;SDS011;69472;55.812;37.638;2023-05-07T15:22:37;5.82;;;0.98;;
80146;SDS011;69472;55.812;37.638;2023-05-07T15:27:38;3.25;;;1.10;;
80146;SDS011;69472;55.812;37.638;2023-05-07T15:32:39;9.88;;;4.53;;
80146;SDS011;69472;55.812;37.638;2023-05-07T15:37:41;3.78;;;1.73;;
80146;SDS011;69472;55.812;37.638;2023-05-07T15:42:43;2.65;;;0.85;;
80146;SDS011;69472;55.812;37.638;2023-05-07T15:47:46;2.95;;;0.95;;
80146;SDS011;69472;55.812;37.638;2023-05-07T15:52:47;3.78;;;1.10;;
80146;SDS011;69472;55.812;37.638;2023-05-07T15:57:48;3.20;;;0.73;;
80146;SDS011;69472;55.812;37.638;2023-05-07T16:02:49;1.67;;;0.80;;
80146;SDS011;69472;55.812;37.638;2023-05-07T16:07:49;1.55;;;0.68;;
80146;SDS011;69472;55.812;37.638;2023-05-07T16:12:50;2.80;;;1.00;;
80146;SDS011;69472;55.812;37.638;2023-05-07T16:17:51;2.75;;;1.20;;
80146;SDS011;69472;55.812;37.638;2023-05-07T16:22:57;1.55;;;0.90;;
80146;SDS011;69472;55.812;37.638;2023-05-07T16:27:58;4.38;;;0.95;;
80146;SDS011;69472;55.812;37.638;2023-05-07T16:32:59;2.20;;;0.82;;
80146;SDS011;69472;55.812;37.638;2023-05-07T16:37:59;1.80;;;0.82;;
80146;SDS011;69472;55.812;37.638;2023-05-07T16:43:00;2.63;;;1.20;;
80146;SDS011;69472;55.812;37.638;2023-05-07T16:48:03;4.65;;;1.75;;
80146;SDS011;69472;55.812;37.638;2023-05-07T16:53:04;5.25;;;2.22;;
80146;SDS011;69472;55.812;37.638;2023-05-07T16:58:07;4.55;;;1.05;;
80146;SDS011;69472;55.812;37.638;2023-05-07T17:03:08;4.80;;;1.17;;
80146;SDS011;69472;55.812;37.638;2023-05-07T17:08:09;5.30;;;1.50;;
80146;SDS011;69472;55.812;37.638;2023-05-07T17:13:11;7.35;;;1.80;;
80146;SDS011;69472;55.812;37.638;2023-05-07T17:18:13;2.80;;;1.50;;
80146;SDS011;69472;55.812;37.638;2023-05-07T17:23:14;3.25;;;1.70;;
80146;SDS011;69472;55.812;37.638;2023-05-07T17:28:14;4.05;;;1.50;;
80146;SDS011;69472;55.812;37.638;2023-05-07T17:33:15;2.97;;;1.50;;
80146;SDS011;69472;55.812;37.638;2023-05-07T17:38:16;7.43;;;2.00;;
80146;SDS011;69472;55.812;37.638;2023-05-07T17:43:17;4.65;;;1.48;;
80146;SDS011;69472;55.812;37.638;2023-05-07T17:48:18;4.68;;;1.75;;
80146;SDS011;69472;55.812;37.638;2023-05-07T17:53:19;2.92;;;1.88;;
80146;SDS011;69472;55.812;37.638;2023-05-07T17:58:23;2.67;;;1.17;;
80146;SDS011;69472;55.812;37.638;2023-05-07T18:03:25;3.80;;;1.35;;
80146;SDS011;69472;55.812;37.638;2023-05-07T18:08:27;4.32;;;1.92;;
80146;SDS011;69472;55.812;37.638;2023-05-07T18:13:28;4.35;;;1.95;;
80146;SDS011;69472;55.812;37.638;2023-05-07T18:18:29;5.13;;;1.30;;
80146;SDS011;69472;55.812;37.638;2023-05-07T18:23:31;3.88;;;1.50;;
80146;SDS011;69472;55.812;37.638;2023-05-07T18:28:34;3.22;;;1.75;;
80146;SDS011;69472;55.812;37.638;2023-05-07T18:33:35;5.88;;;1.98;;
80146;SDS011;69472;55.812;37.638;2023-05-07T18:38:36;3.47;;;1.73;;
80146;SDS011;69472;55.812;37.638;2023-05-07T18:43:37;4.20;;;1.42;;
80146;SDS011;69472;55.812;37.638;2023-05-07T18:48:38;4.18;;;1.33;;
80146;SDS011;69472;55.812;37.638;2023-05-07T18:53:39;5.03;;;1.70;;
80146;SDS011;69472;55.812;37.638;2023-05-07T18:58:40;4.43;;;1.70;;
80146;SDS011;69472;55.812;37.638;2023-05-07T19:03:41;3.47;;;1.73;;
80146;SDS011;69472;55.812;37.638;2023-05-07T19:08:41;3.97;;;1.80;;
80146;SDS011;69472;55.812;37.638;2023-05-07T19:13:42;6.38;;;2.08;;
80146;SDS011;69472;55.812;37.638;2023-05-07T19:18:43;3.72;;;1.60;;
80146;SDS011;69472;55.812;37.638;2023-05-07T19:23:44;4.43;;;2.22;;
80146;SDS011;69472;55.812;37.638;2023-05-07T19:28:45;4.07;;;1.67;;
80146;SDS011;69472;55.812;37.638;2023-05-07T19:33:46;3.78;;;1.90;;
80146;SDS011;69472;55.812;37.638;2023-05-07T19:38:47;3.35;;;1.60;;
80146;SDS011;69472;55.812;37.638;2023-05-07T19:43:52;2.63;;;1.52;;
80146;SDS011;69472;55.812;37.638;2023-05-07T19:48:52;4.47;;;1.80;;
80146;SDS011;69472;55.812;37.638;2023-05-07T19:53:53;6.35;;;2.25;;
80146;SDS011;69472;55.812;37.638;2023-05-07T19:58:54;7.97;;;2.30;;
80146;SDS011;69472;55.812;37.638;2023-05-07T20:03:55;5.85;;;2.03;;
80146;SDS011;69472;55.812;37.638;2023-05-07T20:08:56;6.43;;;1.52;;
80146;SDS011;69472;55.812;37.638;2023-05-07T20:13:56;5.80;;;2.95;;
80146;SDS011;69472;55.812;37.638;2023-05-07T20:18:57;9.07;;;2.50;;
80146;SDS011;69472;55.812;37.638;2023-05-07T20:23:58;4.05;;;2.00;;
80146;SDS011;69472;55.812;37.638;2023-05-07T20:28:59;4.65;;;2.00;;
80146;SDS011;69472;55.812;37.638;2023-05-07T20:33:59;4.93;;;2.20;;
80146;SDS011;69472;55.812;37.638;2023-05-07T20:39:01;7.65;;;2.30;;
80146;SDS011;69472;55.812;37.638;2023-05-07T20:44:01;3.65;;;1.90;;
80146;SDS011;69472;55.812;37.638;2023-05-07T20:49:03;5.95;;;1.98;;
80146;SDS011;69472;55.812;37.638;2023-05-07T20:54:03;6.78;;;2.30;;
80146;SDS011;69472;55.812;37.638;2023-05-07T20:59:04;7.78;;;2.55;;
80146;SDS011;69472;55.812;37.638;2023-05-07T21:04:05;7.93;;;2.40;;
80146;SDS011;69472;55.812;37.638;2023-05-07T21:09:06;5.45;;;2.30;;
80146;SDS011;69472;55.812;37.638;2023-05-07T21:14:07;6.85;;;2.70;;
80146;SDS011;69472;55.812;37.638;2023-05-07T21:19:08;8.98;;;2.80;;
80146;SDS011;69472;55.812;37.638;2023-05-07T21:24:09;7.03;;;2.67;;
80146;SDS011;69472;55.812;37.638;2023-05-07T21:29:10;4.60;;;2.50;;
80146;SDS011;69472;55.812;37.638;2023-05-07T21:34:11;8.18;;;2.25;;
80146;SDS011;69472;55.812;37.638;2023-05-07T21:39:12;6.75;;;2.80;;
80146;SDS011;69472;55.812;37.638;2023-05-07T21:44:12;5.13;;;3.10;;
80146;SDS011;69472;55.812;37.638;2023-05-07T21:49:13;5.88;;;2.10;;
80146;SDS011;69472;55.812;37.638;2023-05-07T21:54:14;6.93;;;2.42;;
80146;SDS011;69472;55.812;37.638;2023-05-07T21:59:15;12.18;;;2.80;;
80146;SDS011;69472;55.812;37.638;2023-05-07T22:04:15;7.78;;;2.90;;
80146;SDS011;69472;55.812;37.638;2023-05-07T22:09:16;6.93;;;3.55;;
80146;SDS011;69472;55.812;37.638;2023-05-07T22:14:17;6.80;;;2.90;;
80146;SDS011;69472;55.812;37.638;2023-05-07T22:19:18;12.52;;;3.80;;
80146;SDS011;69472;55.812;37.638;2023-05-07T22:24:18;10.73;;;3.35;;
80146;SDS011;69472;55.812;37.638;2023-05-07T22:29:19;7.53;;;3.47;;
80146;SDS011;69472;55.812;37.638;2023-05-07T22:34:22;14.07;;;4.15;;
80146;SDS011;69472;55.812;37.638;2023-05-07T22:39:23;9.18;;;3.63;;
80146;SDS011;69472;55.812;37.638;2023-05-07T22:44:24;10.70;;;4.20;;
80146;SDS011;69472;55.812;37.638;2023-05-07T22:49:24;13.02;;;4.22;;
80146;SDS011;69472;55.812;37.638;2023-05-07T22:54:25;12.55;;;3.75;;
80146;SDS011;69472;55.812;37.638;2023-05-07T22:59:26;12.15;;;4.38;;
80146;SDS011;69472;55.812;37.638;2023-05-07T23:04:27;11.75;;;4.18;;
80146;SDS011;69472;55.812;37.638;2023-05-07T23:09:27;10.48;;;4.25;;
80146;SDS011;69472;55.812;37.638;2023-05-07T23:14:28;16.40;;;4.60;;
80146;SDS011;69472;55.812;37.638;2023-05-07T23:19:29;12.55;;;4.30;;
80146;SDS011;69472;55.812;37.638;2023-05-07T23:24:30;9.27;;;3.90;;
80146;SDS011;69472;55.812;37.638;2023-05-07T23:29:31;9.38;;;4.20;;
80146;SDS011;69472;55.812;37.638;2023-05-07T23:34:31;12.02;;;4.35;;
80146;SDS011;69472;55.812;37.638;2023-05-07T23:39:32;12.25;;;4.10;;
80146;SDS011;69472;55.812;37.638;2023-05-07T23:44:33;12.45;;;4.45;;
80146;SDS011;69472;55.812;37.638;2023-05-07T23:49:34;10.10;;;3.83;;
80146;SDS011;69472;55.812;37.638;2023-05-07T23:54:34;13.15;;;4.45;;
80146;SDS011;69472;55.812;37.638;2023-05-07T23:59:35;9.82;;;4.50;;
